sensor_id;sensor_type;location;lat;lon;timestamp;pressure;altitude;pressure_sealevel;temperature;humidity
16190;BME280;41754;51.498;7.540;2023-05-02T00:02:12;100551.09;;;12.65;68.65
16190;BME280;41754;51.498;7.540;2023-05-02T00:04:40;100548.09;;;12.52;68.60
16190;BME280;41754;51.498;7.540;2023-05-02T00:07:10;100546.56;;;12.69;67.99
16190;BME280;41754;51.498;7.540;2023-05-02T00:09:38;100547.63;;;12.90;67.53
16190;BME280;41754;51.498;7.540;2023-05-02T00:12:07;100545.84;;;12.94;67.15
16190;BME280;41754;51.498;7.540;2023-05-02T00:14:35;100556.50;;;12.78;67.56
16190;BME280;41754;51.498;7.540;2023-05-02T00:17:02;100547.00;;;13.10;66.97
16190;BME280;41754;51.498;7.540;2023-05-02T00:19:30;100549.91;;;12.88;67.69
16190;BME280;41754;51.498;7.540;2023-05-02T00:21:59;100545.81;;;12.85;67.52
16190;BME280;41754;51.498;7.540;2023-05-02T00:24:28;100554.41;;;12.84;67.24
16190;BME280;41754;51.498;7.540;2023-05-02T00:26:56;100559.88;;;12.67;67.90
16190;BME280;41754;51.498;7.540;2023-05-02T00:29:24;100564.66;;;12.52;68.64
16190;BME280;41754;51.498;7.540;2023-05-02T00:31:52;100561.28;;;12.33;68.53
16190;BME280;41754;51.498;7.540;2023-05-02T00:34:20;100563.38;;;12.58;68.42
16190;BME280;41754;51.498;7.540;2023-05-02T00:36:48;100568.81;;;12.64;67.33
16190;BME280;41754;51.498;7.540;2023-05-02T00:39:16;100568.56;;;12.51;67.54
16190;BME280;41754;51.498;7.540;2023-05-02T00:41:45;100575.06;;;12.55;67.65
16190;BME280;41754;51.498;7.540;2023-05-02T00:44:13;100577.19;;;12.58;67.46
16190;BME280;41754;51.498;7.540;2023-05-02T00:46:42;100578.72;;;12.65;66.71
16190;BME280;41754;51.498;7.540;2023-05-02T00:49:10;100584.63;;;12.80;66.61
16190;BME280;41754;51.498;7.540;2023-05-02T00:51:38;100582.88;;;12.93;65.70
16190;BME280;41754;51.498;7.540;2023-05-02T00:54:06;100577.78;;;12.78;65.75
16190;BME280;41754;51.498;7.540;2023-05-02T00:56:34;100574.22;;;12.77;65.85
16190;BME280;41754;51.498;7.540;2023-05-02T00:59:04;100583.44;;;13.12;65.36
16190;BME280;41754;51.498;7.540;2023-05-02T01:01:41;100580.19;;;12.71;66.34
16190;BME280;41754;51.498;7.540;2023-05-02T01:04:22;100583.81;;;12.80;66.20
16190;BME280;41754;51.498;7.540;2023-05-02T01:07:09;100581.22;;;12.83;66.20
16190;BME280;41754;51.498;7.540;2023-05-02T01:09:48;100584.56;;;12.72;66.82
16190;BME280;41754;51.498;7.540;2023-05-02T01:12:26;100589.97;;;12.77;66.50
16190;BME280;41754;51.498;7.540;2023-05-02T01:14:58;100589.59;;;13.09;66.43
16190;BME280;41754;51.498;7.540;2023-05-02T01:17:31;100587.91;;;12.91;66.24
16190;BME280;41754;51.498;7.540;2023-05-02T01:20:04;100586.97;;;13.04;66.20
16190;BME280;41754;51.498;7.540;2023-05-02T01:22:33;100593.31;;;13.05;67.09
16190;BME280;41754;51.498;7.540;2023-05-02T01:25:16;100593.00;;;12.67;67.54
16190;BME280;41754;51.498;7.540;2023-05-02T01:27:52;100594.84;;;12.80;66.62
16190;BME280;41754;51.498;7.540;2023-05-02T01:30:26;100599.50;;;12.71;66.94
16190;BME280;41754;51.498;7.540;2023-05-02T01:32:56;100596.25;;;12.69;65.95
16190;BME280;41754;51.498;7.540;2023-05-02T01:35:28;100604.13;;;12.84;65.92
16190;BME280;41754;51.498;7.540;2023-05-02T01:37:58;100606.44;;;12.99;65.00
16190;BME280;41754;51.498;7.540;2023-05-02T01:40:27;100605.25;;;12.83;66.06
16190;BME280;41754;51.498;7.540;2023-05-02T01:42:57;100607.22;;;12.29;67.37
16190;BME280;41754;51.498;7.540;2023-05-02T01:45:28;100615.47;;;12.51;66.55
16190;BME280;41754;51.498;7.540;2023-05-02T01:47:57;100608.91;;;12.39;66.87
16190;BME280;41754;51.498;7.540;2023-05-02T01:50:25;100610.00;;;12.60;66.37
16190;BME280;41754;51.498;7.540;2023-05-02T01:52:53;100612.72;;;12.82;65.76
16190;BME280;41754;51.498;7.540;2023-05-02T01:55:23;100619.75;;;12.97;65.24
16190;BME280;41754;51.498;7.540;2023-05-02T01:57:53;100617.38;;;12.65;66.71
16190;BME280;41754;51.498;7.540;2023-05-02T02:00:24;100626.75;;;12.95;65.71
16190;BME280;41754;51.498;7.540;2023-05-02T02:02:56;100628.75;;;13.03;65.22
16190;BME280;41754;51.498;7.540;2023-05-02T02:05:26;100633.50;;;12.80;66.23
16190;BME280;41754;51.498;7.540;2023-05-02T02:07:55;100641.25;;;12.69;66.04
16190;BME280;41754;51.498;7.540;2023-05-02T02:10:25;100637.09;;;12.58;66.69
16190;BME280;41754;51.498;7.540;2023-05-02T02:13:02;100639.69;;;12.54;66.09
16190;BME280;41754;51.498;7.540;2023-05-02T02:15:33;100646.22;;;12.90;65.79
16190;BME280;41754;51.498;7.540;2023-05-02T02:18:09;100650.72;;;12.77;65.95
16190;BME280;41754;51.498;7.540;2023-05-02T02:20:41;100654.84;;;12.88;66.17
16190;BME280;41754;51.498;7.540;2023-05-02T02:23:12;100650.47;;;12.96;66.40
16190;BME280;41754;51.498;7.540;2023-05-02T02:25:42;100653.22;;;12.42;67.33
16190;BME280;41754;51.498;7.540;2023-05-02T02:28:14;100659.50;;;12.79;66.34
16190;BME280;41754;51.498;7.540;2023-05-02T02:30:42;100665.22;;;12.60;66.52
16190;BME280;41754;51.498;7.540;2023-05-02T02:33:11;100666.53;;;12.40;68.02
16190;BME280;41754;51.498;7.540;2023-05-02T02:35:43;100667.44;;;12.58;66.88
16190;BME280;41754;51.498;7.540;2023-05-02T02:38:20;100664.34;;;12.51;67.91
16190;BME280;41754;51.498;7.540;2023-05-02T02:40:54;100670.59;;;12.20;68.25
16190;BME280;41754;51.498;7.540;2023-05-02T02:43:31;100674.66;;;12.23;68.55
16190;BME280;41754;51.498;7.540;2023-05-02T02:46:11;100676.09;;;11.98;69.04
16190;BME280;41754;51.498;7.540;2023-05-02T02:48:47;100683.19;;;12.13;69.44
16190;BME280;41754;51.498;7.540;2023-05-02T02:51:24;100670.72;;;12.15;68.57
16190;BME280;41754;51.498;7.540;2023-05-02T02:53:59;100677.81;;;12.30;68.14
16190;BME280;41754;51.498;7.540;2023-05-02T02:56:39;100678.06;;;12.20;68.60
16190;BME280;41754;51.498;7.540;2023-05-02T02:59:13;100681.00;;;12.23;68.56
16190;BME280;41754;51.498;7.540;2023-05-02T03:01:45;100684.97;;;12.31;68.35
16190;BME280;41754;51.498;7.540;2023-05-02T03:04:15;100681.69;;;12.07;68.75
16190;BME280;41754;51.498;7.540;2023-05-02T03:06:47;100696.34;;;11.93;69.64
16190;BME280;41754;51.498;7.540;2023-05-02T03:09:16;100689.59;;;11.86;69.90
16190;BME280;41754;51.498;7.540;2023-05-02T03:11:47;100690.63;;;11.90;70.38
16190;BME280;41754;51.498;7.540;2023-05-02T03:14:16;100693.84;;;12.06;70.27
16190;BME280;41754;51.498;7.540;2023-05-02T03:16:44;100702.22;;;12.01;70.09
16190;BME280;41754;51.498;7.540;2023-05-02T03:19:15;100701.13;;;12.02;69.88
16190;BME280;41754;51.498;7.540;2023-05-02T03:21:43;100702.34;;;11.95;70.67
16190;BME280;41754;51.498;7.540;2023-05-02T03:24:16;100704.75;;;12.11;69.96
16190;BME280;41754;51.498;7.540;2023-05-02T03:26:46;100705.88;;;12.10;69.89
16190;BME280;41754;51.498;7.540;2023-05-02T03:29:18;100702.53;;;12.35;69.02
16190;BME280;41754;51.498;7.540;2023-05-02T03:31:46;100708.34;;;12.34;69.42
16190;BME280;41754;51.498;7.540;2023-05-02T03:34:16;100703.34;;;12.36;68.52
16190;BME280;41754;51.498;7.540;2023-05-02T03:36:46;100702.09;;;12.42;67.96
16190;BME280;41754;51.498;7.540;2023-05-02T03:39:14;100708.75;;;12.05;69.58
16190;BME280;41754;51.498;7.540;2023-05-02T03:41:44;100704.56;;;12.07;70.17
16190;BME280;41754;51.498;7.540;2023-05-02T03:44:16;100711.09;;;12.11;70.37
16190;BME280;41754;51.498;7.540;2023-05-02T03:46:44;100716.00;;;12.37;69.22
16190;BME280;41754;51.498;7.540;2023-05-02T03:49:12;100719.31;;;12.25;69.19
16190;BME280;41754;51.498;7.540;2023-05-02T03:51:44;100721.03;;;11.98;69.77
16190;BME280;41754;51.498;7.540;2023-05-02T03:54:17;100717.13;;;12.13;70.08
16190;BME280;41754;51.498;7.540;2023-05-02T03:56:45;100721.38;;;11.28;72.46
16190;BME280;41754;51.498;7.540;2023-05-02T03:59:19;100719.22;;;11.80;71.69
16190;BME280;41754;51.498;7.540;2023-05-02T04:01:48;100732.06;;;11.98;70.92
16190;BME280;41754;51.498;7.540;2023-05-02T04:04:19;100729.81;;;11.87;71.04
16190;BME280;41754;51.498;7.540;2023-05-02T04:06:51;100724.28;;;12.01;70.86
16190;BME280;41754;51.498;7.540;2023-05-02T04:09:19;100736.66;;;12.39;68.71
16190;BME280;41754;51.498;7.540;2023-05-02T04:11:58;100726.78;;;12.47;68.42
16190;BME280;41754;51.498;7.540;2023-05-02T04:14:27;100728.25;;;12.44;67.99
16190;BME280;41754;51.498;7.540;2023-05-02T04:16:55;100734.25;;;12.46;68.21
16190;BME280;41754;51.498;7.540;2023-05-02T04:19:33;100737.91;;;12.55;67.24
16190;BME280;41754;51.498;7.540;2023-05-02T04:22:03;100741.38;;;12.25;67.28
16190;BME280;41754;51.498;7.540;2023-05-02T04:24:36;100741.41;;;12.47;68.34
16190;BME280;41754;51.498;7.540;2023-05-02T04:27:04;100746.84;;;12.16;68.68
16190;BME280;41754;51.498;7.540;2023-05-02T04:29:32;100749.56;;;12.30;68.48
16190;BME280;41754;51.498;7.540;2023-05-02T04:32:00;100750.50;;;12.12;68.71
16190;BME280;41754;51.498;7.540;2023-05-02T04:34:30;100755.16;;;11.75;69.08
16190;BME280;41754;51.498;7.540;2023-05-02T04:36:59;100757.91;;;12.03;69.13
16190;BME280;41754;51.498;7.540;2023-05-02T04:39:30;100762.22;;;12.31;68.23
16190;BME280;41754;51.498;7.540;2023-05-02T04:42:05;100767.59;;;12.14;67.83
16190;BME280;41754;51.498;7.540;2023-05-02T04:44:40;100763.47;;;12.25;67.85
16190;BME280;41754;51.498;7.540;2023-05-02T04:47:08;100765.38;;;12.38;67.27
16190;BME280;41754;51.498;7.540;2023-05-02T04:49:37;100777.53;;;12.37;68.80
16190;BME280;41754;51.498;7.540;2023-05-02T04:52:05;100785.38;;;12.08;69.07
16190;BME280;41754;51.498;7.540;2023-05-02T04:54:34;100777.53;;;12.37;68.81
16190;BME280;41754;51.498;7.540;2023-05-02T04:57:02;100787.72;;;12.50;68.50
16190;BME280;41754;51.498;7.540;2023-05-02T04:59:36;100794.97;;;12.46;69.03
16190;BME280;41754;51.498;7.540;2023-05-02T05:02:05;100791.31;;;12.37;68.83
16190;BME280;41754;51.498;7.540;2023-05-02T05:04:34;100795.16;;;12.27;69.87
16190;BME280;41754;51.498;7.540;2023-05-02T05:07:03;100803.97;;;12.02;70.72
16190;BME280;41754;51.498;7.540;2023-05-02T05:09:31;100800.66;;;12.27;70.54
16190;BME280;41754;51.498;7.540;2023-05-02T05:12:01;100801.56;;;12.73;69.62
16190;BME280;41754;51.498;7.540;2023-05-02T05:14:32;100808.16;;;12.49;70.09
16190;BME280;41754;51.498;7.540;2023-05-02T05:17:01;100811.44;;;12.65;69.48
16190;BME280;41754;51.498;7.540;2023-05-02T05:19:29;100818.69;;;12.47;70.10
16190;BME280;41754;51.498;7.540;2023-05-02T05:21:57;100824.53;;;12.46;71.61
16190;BME280;41754;51.498;7.540;2023-05-02T05:24:25;100829.19;;;12.73;70.43
16190;BME280;41754;51.498;7.540;2023-05-02T05:26:55;100832.25;;;12.08;72.83
16190;BME280;41754;51.498;7.540;2023-05-02T05:29:25;100833.38;;;12.07;72.92
16190;BME280;41754;51.498;7.540;2023-05-02T05:31:53;100844.50;;;11.74;74.00
16190;BME280;41754;51.498;7.540;2023-05-02T05:34:22;100848.09;;;12.16;74.06
16190;BME280;41754;51.498;7.540;2023-05-02T05:36:53;100845.00;;;12.31;74.46
16190;BME280;41754;51.498;7.540;2023-05-02T05:39:21;100856.16;;;11.85;75.40
16190;BME280;41754;51.498;7.540;2023-05-02T05:41:52;100854.44;;;12.03;74.52
16190;BME280;41754;51.498;7.540;2023-05-02T05:44:22;100864.41;;;12.53;72.30
16190;BME280;41754;51.498;7.540;2023-05-02T05:46:52;100861.66;;;12.40;71.97
16190;BME280;41754;51.498;7.540;2023-05-02T05:49:22;100889.97;;;11.77;76.48
16190;BME280;41754;51.498;7.540;2023-05-02T05:51:51;100875.69;;;12.30;72.70
16190;BME280;41754;51.498;7.540;2023-05-02T05:54:19;100875.22;;;12.50;69.83
16190;BME280;41754;51.498;7.540;2023-05-02T05:56:47;100869.50;;;12.46;69.49
16190;BME280;41754;51.498;7.540;2023-05-02T05:59:18;100869.53;;;12.33;69.84
16190;BME280;41754;51.498;7.540;2023-05-02T06:01:47;100885.69;;;12.39;69.96
16190;BME280;41754;51.498;7.540;2023-05-02T06:04:18;100883.81;;;12.48;68.76
16190;BME280;41754;51.498;7.540;2023-05-02T06:06:48;100879.47;;;12.83;67.28
16190;BME280;41754;51.498;7.540;2023-05-02T06:09:19;100883.22;;;12.51;68.83
16190;BME280;41754;51.498;7.540;2023-05-02T06:11:47;100888.09;;;12.54;68.70
16190;BME280;41754;51.498;7.540;2023-05-02T06:14:15;100886.19;;;12.91;67.37
16190;BME280;41754;51.498;7.540;2023-05-02T06:16:45;100894.44;;;13.27;66.28
16190;BME280;41754;51.498;7.540;2023-05-02T06:19:13;100894.72;;;13.48;65.42
16190;BME280;41754;51.498;7.540;2023-05-02T06:21:43;100886.19;;;13.36;63.92
16190;BME280;41754;51.498;7.540;2023-05-02T06:24:10;100895.50;;;12.95;63.56
16190;BME280;41754;51.498;7.540;2023-05-02T06:26:38;100893.81;;;13.08;62.74
16190;BME280;41754;51.498;7.540;2023-05-02T06:29:06;100899.97;;;13.27;62.84
16190;BME280;41754;51.498;7.540;2023-05-02T06:31:34;100885.28;;;13.18;62.03
16190;BME280;41754;51.498;7.540;2023-05-02T06:34:02;100900.03;;;13.13;60.88
16190;BME280;41754;51.498;7.540;2023-05-02T06:36:30;100904.94;;;13.39;60.86
16190;BME280;41754;51.498;7.540;2023-05-02T06:38:59;100915.84;;;13.44;61.13
16190;BME280;41754;51.498;7.540;2023-05-02T06:41:27;100910.50;;;13.03;60.78
16190;BME280;41754;51.498;7.540;2023-05-02T06:43:55;100920.56;;;13.21;59.83
16190;BME280;41754;51.498;7.540;2023-05-02T06:46:27;100924.88;;;13.36;59.11
16190;BME280;41754;51.498;7.540;2023-05-02T06:48:55;100928.88;;;13.97;58.49
16190;BME280;41754;51.498;7.540;2023-05-02T06:51:23;100942.19;;;13.41;58.77
16190;BME280;41754;51.498;7.540;2023-05-02T06:53:51;100940.72;;;13.66;57.27
16190;BME280;41754;51.498;7.540;2023-05-02T06:56:20;100945.88;;;13.59;57.43
16190;BME280;41754;51.498;7.540;2023-05-02T06:58:48;100948.09;;;13.71;56.81
16190;BME280;41754;51.498;7.540;2023-05-02T07:01:16;100945.94;;;13.90;56.65
16190;BME280;41754;51.498;7.540;2023-05-02T07:03:45;100953.03;;;13.60;56.53
16190;BME280;41754;51.498;7.540;2023-05-02T07:06:13;100956.13;;;13.59;57.76
16190;BME280;41754;51.498;7.540;2023-05-02T07:08:41;100957.03;;;13.99;56.80
16190;BME280;41754;51.498;7.540;2023-05-02T07:11:09;100957.44;;;13.84;57.36
16190;BME280;41754;51.498;7.540;2023-05-02T07:13:38;100973.41;;;13.42;56.59
16190;BME280;41754;51.498;7.540;2023-05-02T07:16:06;100967.81;;;13.56;56.29
16190;BME280;41754;51.498;7.540;2023-05-02T07:18:35;100977.63;;;13.84;55.58
16190;BME280;41754;51.498;7.540;2023-05-02T07:21:03;100981.16;;;14.07;54.98
16190;BME280;41754;51.498;7.540;2023-05-02T07:23:31;100985.13;;;14.15;54.13
16190;BME280;41754;51.498;7.540;2023-05-02T07:25:59;100988.31;;;13.99;54.03
16190;BME280;41754;51.498;7.540;2023-05-02T07:28:29;100986.66;;;13.98;55.69
16190;BME280;41754;51.498;7.540;2023-05-02T07:30:59;100997.66;;;14.12;55.13
16190;BME280;41754;51.498;7.540;2023-05-02T07:33:27;100995.66;;;13.82;55.55
16190;BME280;41754;51.498;7.540;2023-05-02T07:35:55;101004.19;;;13.27;58.16
16190;BME280;41754;51.498;7.540;2023-05-02T07:38:23;101007.31;;;12.84;59.07
16190;BME280;41754;51.498;7.540;2023-05-02T07:40:51;101002.50;;;13.03;59.08
16190;BME280;41754;51.498;7.540;2023-05-02T07:43:19;101001.88;;;13.06;57.33
16190;BME280;41754;51.498;7.540;2023-05-02T07:45:47;101011.03;;;12.66;58.70
16190;BME280;41754;51.498;7.540;2023-05-02T07:48:16;101010.81;;;12.76;58.83
16190;BME280;41754;51.498;7.540;2023-05-02T07:50:44;101013.16;;;12.82;58.70
16190;BME280;41754;51.498;7.540;2023-05-02T07:53:12;101017.66;;;12.92;58.27
16190;BME280;41754;51.498;7.540;2023-05-02T07:55:40;101019.94;;;12.63;59.36
16190;BME280;41754;51.498;7.540;2023-05-02T07:58:08;101035.53;;;12.53;60.33
16190;BME280;41754;51.498;7.540;2023-05-02T08:00:36;101045.34;;;11.99;62.53
16190;BME280;41754;51.498;7.540;2023-05-02T08:03:03;101048.63;;;11.69;65.35
16190;BME280;41754;51.498;7.540;2023-05-02T08:05:33;101060.19;;;11.52;66.27
16190;BME280;41754;51.498;7.540;2023-05-02T08:08:01;101070.00;;;10.97;67.45
16190;BME280;41754;51.498;7.540;2023-05-02T08:10:29;101077.75;;;10.95;66.85
16190;BME280;41754;51.498;7.540;2023-05-02T08:12:57;101078.66;;;10.61;67.86
16190;BME280;41754;51.498;7.540;2023-05-02T08:15:25;101090.91;;;10.21;68.53
16190;BME280;41754;51.498;7.540;2023-05-02T08:17:53;101092.97;;;10.00;69.71
16190;BME280;41754;51.498;7.540;2023-05-02T08:20:21;101103.69;;;10.36;68.13
16190;BME280;41754;51.498;7.540;2023-05-02T08:22:50;101100.78;;;10.27;68.75
16190;BME280;41754;51.498;7.540;2023-05-02T08:25:18;101105.59;;;10.06;68.12
16190;BME280;41754;51.498;7.540;2023-05-02T08:27:46;101108.53;;;10.20;68.16
16190;BME280;41754;51.498;7.540;2023-05-02T08:30:14;101117.44;;;10.02;67.68
16190;BME280;41754;51.498;7.540;2023-05-02T08:32:42;101117.88;;;10.14;67.28
16190;BME280;41754;51.498;7.540;2023-05-02T08:35:11;101119.13;;;9.98;67.78
16190;BME280;41754;51.498;7.540;2023-05-02T08:37:39;101122.34;;;10.44;66.81
16190;BME280;41754;51.498;7.540;2023-05-02T08:40:10;101131.28;;;10.26;67.42
16190;BME280;41754;51.498;7.540;2023-05-02T08:42:41;101138.34;;;10.37;67.14
16190;BME280;41754;51.498;7.540;2023-05-02T08:45:11;101128.47;;;10.65;65.66
16190;BME280;41754;51.498;7.540;2023-05-02T08:47:42;101141.81;;;11.24;64.63
16190;BME280;41754;51.498;7.540;2023-05-02T08:50:11;101137.50;;;10.94;64.31
16190;BME280;41754;51.498;7.540;2023-05-02T08:52:39;101140.81;;;10.38;65.19
16190;BME280;41754;51.498;7.540;2023-05-02T08:55:10;101150.56;;;10.55;65.97
16190;BME280;41754;51.498;7.540;2023-05-02T08:57:40;101159.75;;;10.98;65.22
16190;BME280;41754;51.498;7.540;2023-05-02T09:00:11;101159.41;;;11.04;65.33
16190;BME280;41754;51.498;7.540;2023-05-02T09:02:48;101155.09;;;11.65;63.30
16190;BME280;41754;51.498;7.540;2023-05-02T09:05:19;101153.91;;;11.90;61.54
16190;BME280;41754;51.498;7.540;2023-05-02T09:07:50;101155.41;;;11.63;61.68
16190;BME280;41754;51.498;7.540;2023-05-02T09:10:20;101158.16;;;11.82;62.45
16190;BME280;41754;51.498;7.540;2023-05-02T09:12:48;101177.16;;;11.65;62.35
16190;BME280;41754;51.498;7.540;2023-05-02T09:15:16;101170.53;;;11.42;62.79
16190;BME280;41754;51.498;7.540;2023-05-02T09:17:47;101186.72;;;11.49;62.35
16190;BME280;41754;51.498;7.540;2023-05-02T09:20:15;101182.19;;;11.58;61.71
16190;BME280;41754;51.498;7.540;2023-05-02T09:22:47;101186.75;;;11.67;61.84
16190;BME280;41754;51.498;7.540;2023-05-02T09:25:17;101185.13;;;11.85;60.64
16190;BME280;41754;51.498;7.540;2023-05-02T09:27:51;101190.94;;;11.41;62.03
16190;BME280;41754;51.498;7.540;2023-05-02T09:30:22;101195.97;;;11.58;62.38
16190;BME280;41754;51.498;7.540;2023-05-02T09:32:51;101200.78;;;11.23;62.57
16190;BME280;41754;51.498;7.540;2023-05-02T09:35:21;101200.88;;;11.37;62.94
16190;BME280;41754;51.498;7.540;2023-05-02T09:37:53;101201.03;;;11.27;61.83
16190;BME280;41754;51.498;7.540;2023-05-02T09:40:22;101196.06;;;11.00;62.20
16190;BME280;41754;51.498;7.540;2023-05-02T09:42:51;101198.53;;;11.25;61.49
16190;BME280;41754;51.498;7.540;2023-05-02T09:45:20;101209.13;;;11.18;60.72
16190;BME280;41754;51.498;7.540;2023-05-02T09:47:49;101205.59;;;11.60;60.54
16190;BME280;41754;51.498;7.540;2023-05-02T09:50:34;101216.13;;;11.77;59.95
16190;BME280;41754;51.498;7.540;2023-05-02T09:53:04;101209.28;;;11.93;57.74
16190;BME280;41754;51.498;7.540;2023-05-02T09:55:32;101220.78;;;11.58;58.51
16190;BME280;41754;51.498;7.540;2023-05-02T09:58:01;101219.19;;;11.94;56.71
16190;BME280;41754;51.498;7.540;2023-05-02T10:00:40;101220.72;;;11.63;56.83
16190;BME280;41754;51.498;7.540;2023-05-02T10:03:09;101227.09;;;12.20;56.97
16190;BME280;41754;51.498;7.540;2023-05-02T10:05:38;101231.34;;;12.12;56.30
16190;BME280;41754;51.498;7.540;2023-05-02T10:08:07;101229.31;;;11.80;55.85
16190;BME280;41754;51.498;7.540;2023-05-02T10:10:37;101235.75;;;11.94;56.51
16190;BME280;41754;51.498;7.540;2023-05-02T10:13:07;101242.88;;;11.77;58.17
16190;BME280;41754;51.498;7.540;2023-05-02T10:15:41;101242.41;;;11.22;57.53
16190;BME280;41754;51.498;7.540;2023-05-02T10:18:15;101249.44;;;11.33;57.89
16190;BME280;41754;51.498;7.540;2023-05-02T10:20:49;101248.97;;;11.02;57.20
16190;BME280;41754;51.498;7.540;2023-05-02T10:23:24;101254.63;;;11.10;56.76
16190;BME280;41754;51.498;7.540;2023-05-02T10:25:53;101244.59;;;11.49;54.48
16190;BME280;41754;51.498;7.540;2023-05-02T10:28:25;101245.06;;;11.56;54.69
16190;BME280;41754;51.498;7.540;2023-05-02T10:30:53;101242.59;;;11.78;54.50
16190;BME280;41754;51.498;7.540;2023-05-02T10:33:22;101245.66;;;11.95;54.73
16190;BME280;41754;51.498;7.540;2023-05-02T10:35:50;101247.22;;;11.83;54.75
16190;BME280;41754;51.498;7.540;2023-05-02T10:38:19;101246.56;;;11.91;54.27
16190;BME280;41754;51.498;7.540;2023-05-02T10:40:53;101244.06;;;12.46;53.72
16190;BME280;41754;51.498;7.540;2023-05-02T10:43:26;101242.75;;;11.63;55.10
16190;BME280;41754;51.498;7.540;2023-05-02T10:45:54;101253.53;;;11.83;54.62
16190;BME280;41754;51.498;7.540;2023-05-02T10:48:23;101247.88;;;12.69;54.93
16190;BME280;41754;51.498;7.540;2023-05-02T10:50:53;101242.09;;;12.98;53.90
16190;BME280;41754;51.498;7.540;2023-05-02T10:53:27;101251.84;;;12.95;52.73
16190;BME280;41754;51.498;7.540;2023-05-02T10:56:13;101251.91;;;12.57;53.86
16190;BME280;41754;51.498;7.540;2023-05-02T10:58:43;101258.41;;;12.67;54.04
16190;BME280;41754;51.498;7.540;2023-05-02T11:01:34;101253.31;;;12.74;51.19
16190;BME280;41754;51.498;7.540;2023-05-02T11:04:07;101261.59;;;12.74;51.59
16190;BME280;41754;51.498;7.540;2023-05-02T11:06:37;101259.44;;;12.33;51.90
16190;BME280;41754;51.498;7.540;2023-05-02T11:09:31;101259.78;;;12.83;51.19
16190;BME280;41754;51.498;7.540;2023-05-02T11:12:00;101254.97;;;12.56;52.12
16190;BME280;41754;51.498;7.540;2023-05-02T11:14:43;101252.88;;;12.48;51.82
16190;BME280;41754;51.498;7.540;2023-05-02T11:17:13;101257.41;;;12.57;51.67
16190;BME280;41754;51.498;7.540;2023-05-02T11:22:55;101261.81;;;12.58;52.86
16190;BME280;41754;51.498;7.540;2023-05-02T11:25:30;101262.72;;;12.73;50.15
16190;BME280;41754;51.498;7.540;2023-05-02T11:27:59;101267.72;;;12.71;49.88
16190;BME280;41754;51.498;7.540;2023-05-02T11:30:39;101264.44;;;12.69;49.96
16190;BME280;41754;51.498;7.540;2023-05-02T11:33:17;101260.63;;;12.97;47.46
16190;BME280;41754;51.498;7.540;2023-05-02T11:35:47;101272.47;;;12.84;48.90
16190;BME280;41754;51.498;7.540;2023-05-02T11:38:17;101267.63;;;13.08;47.48
16190;BME280;41754;51.498;7.540;2023-05-02T11:41:04;101269.03;;;13.80;46.89
16190;BME280;41754;51.498;7.540;2023-05-02T11:43:32;101275.56;;;13.56;47.54
16190;BME280;41754;51.498;7.540;2023-05-02T11:46:01;101269.50;;;13.54;48.02
16190;BME280;41754;51.498;7.540;2023-05-02T11:48:31;101274.88;;;13.78;46.60
16190;BME280;41754;51.498;7.540;2023-05-02T11:51:00;101267.69;;;14.63;45.00
16190;BME280;41754;51.498;7.540;2023-05-02T11:53:33;101278.94;;;15.11;43.69
16190;BME280;41754;51.498;7.540;2023-05-02T11:56:07;101269.22;;;16.54;39.99
16190;BME280;41754;51.498;7.540;2023-05-02T11:58:35;101258.75;;;15.99;39.09
16190;BME280;41754;51.498;7.540;2023-05-02T12:01:12;101264.72;;;15.75;38.79
16190;BME280;41754;51.498;7.540;2023-05-02T12:03:41;101268.25;;;16.24;39.16
16190;BME280;41754;51.498;7.540;2023-05-02T12:06:11;101264.75;;;16.96;38.91
16190;BME280;41754;51.498;7.540;2023-05-02T12:08:42;101268.09;;;18.33;35.92
16190;BME280;41754;51.498;7.540;2023-05-02T12:11:12;101277.69;;;16.31;37.89
16190;BME280;41754;51.498;7.540;2023-05-02T12:13:44;101274.88;;;15.88;37.83
16190;BME280;41754;51.498;7.540;2023-05-02T12:16:15;101279.41;;;15.44;38.11
16190;BME280;41754;51.498;7.540;2023-05-02T12:18:44;101278.00;;;16.04;39.45
16190;BME280;41754;51.498;7.540;2023-05-02T12:21:14;101290.84;;;15.74;38.28
16190;BME280;41754;51.498;7.540;2023-05-02T12:23:43;101291.38;;;15.23;41.11
16190;BME280;41754;51.498;7.540;2023-05-02T12:26:16;101293.38;;;15.00;41.49
16190;BME280;41754;51.498;7.540;2023-05-02T12:28:47;101291.19;;;15.19;41.18
16190;BME280;41754;51.498;7.540;2023-05-02T12:31:17;101289.00;;;14.76;41.64
16190;BME280;41754;51.498;7.540;2023-05-02T12:33:46;101282.63;;;14.76;42.25
16190;BME280;41754;51.498;7.540;2023-05-02T12:36:16;101277.56;;;15.31;39.97
16190;BME280;41754;51.498;7.540;2023-05-02T12:38:48;101287.78;;;14.69;41.45
16190;BME280;41754;51.498;7.540;2023-05-02T12:41:18;101290.00;;;16.74;37.06
16190;BME280;41754;51.498;7.540;2023-05-02T12:43:47;101285.28;;;18.89;35.28
16190;BME280;41754;51.498;7.540;2023-05-02T12:46:18;101288.97;;;19.96;33.06
16190;BME280;41754;51.498;7.540;2023-05-02T12:49:00;101286.13;;;19.35;30.76
16190;BME280;41754;51.498;7.540;2023-05-02T12:51:28;101299.94;;;17.09;35.63
16190;BME280;41754;51.498;7.540;2023-05-02T12:53:57;101303.31;;;16.02;37.28
16190;BME280;41754;51.498;7.540;2023-05-02T12:56:25;101302.63;;;17.44;34.38
16190;BME280;41754;51.498;7.540;2023-05-02T12:58:58;101298.81;;;16.58;36.83
16190;BME280;41754;51.498;7.540;2023-05-02T13:01:28;101301.50;;;16.06;36.22
16190;BME280;41754;51.498;7.540;2023-05-02T13:03:57;101309.44;;;16.56;36.61
16190;BME280;41754;51.498;7.540;2023-05-02T13:06:25;101306.66;;;15.42;36.36
16190;BME280;41754;51.498;7.540;2023-05-02T13:08:53;101313.03;;;15.74;37.42
16190;BME280;41754;51.498;7.540;2023-05-02T13:11:21;101314.84;;;15.78;37.47